sensor_id;sensor_type;location;lat;lon;timestamp;P1;durP1;ratioP1;P2;durP2;ratioP2
20505;SDS011;10411;48.148;7.704;2022-11-14T00:02:06;27.37;;;25.20;;
20505;SDS011;10411;48.148;7.704;2022-11-14T00:04:32;28.93;;;26.73;;
20505;SDS011;10411;48.148;7.704;2022-11-14T00:06:58;29.23;;;26.90;;
20505;SDS011;10411;48.148;7.704;2022-11-14T00:09:27;28.37;;;26.17;;
20505;SDS011;10411;48.148;7.704;2022-11-14T00:11:53;29.87;;;27.40;;
20505;SDS011;10411;48.148;7.704;2022-11-14T00:14:20;29.60;;;27.30;;
20505;SDS011;10411;48.148;7.704;2022-11-14T00:16:46;30.33;;;27.93;;
20505;SDS011;10411;48.148;7.704;2022-11-14T00:19:12;30.90;;;28.40;;
20505;SDS011;10411;48.148;7.704;2022-11-14T00:21:38;29.70;;;27.30;;
20505;SDS011;10411;48.148;7.704;2022-11-14T00:24:04;30.67;;;28.10;;
20505;SDS011;10411;48.148;7.704;2022-11-14T00:26:30;29.50;;;27.20;;
20505;SDS011;10411;48.148;7.704;2022-11-14T00:28:56;30.17;;;27.77;;
20505;SDS011;10411;48.148;7.704;2022-11-14T00:31:22;31.00;;;28.50;;
20505;SDS011;10411;48.148;7.704;2022-11-14T00:33:48;30.97;;;28.47;;
20505;SDS011;10411;48.148;7.704;2022-11-14T00:36:14;31.37;;;28.67;;
20505;SDS011;10411;48.148;7.704;2022-11-14T00:38:40;33.17;;;30.03;;
20505;SDS011;10411;48.148;7.704;2022-11-14T00:41:06;31.73;;;29.07;;
20505;SDS011;10411;48.148;7.704;2022-11-14T00:43:31;31.70;;;28.93;;
20505;SDS011;10411;48.148;7.704;2022-11-14T00:45:57;31.23;;;28.73;;
20505;SDS011;10411;48.148;7.704;2022-11-14T00:48:23;32.00;;;29.27;;
20505;SDS011;10411;48.148;7.704;2022-11-14T00:50:49;32.03;;;29.33;;
20505;SDS011;10411;48.148;7.704;2022-11-14T00:53:15;31.13;;;28.50;;
20505;SDS011;10411;48.148;7.704;2022-11-14T00:55:41;31.87;;;29.27;;
20505;SDS011;10411;48.148;7.704;2022-11-14T00:58:07;32.07;;;29.37;;
20505;SDS011;10411;48.148;7.704;2022-11-14T01:00:33;32.13;;;29.53;;
20505;SDS011;10411;48.148;7.704;2022-11-14T01:03:00;31.40;;;28.90;;
20505;SDS011;10411;48.148;7.704;2022-11-14T01:05:26;31.60;;;28.97;;
20505;SDS011;10411;48.148;7.704;2022-11-14T01:07:52;32.23;;;29.53;;
20505;SDS011;10411;48.148;7.704;2022-11-14T01:10:18;30.93;;;28.23;;
20505;SDS011;10411;48.148;7.704;2022-11-14T01:12:45;32.30;;;29.57;;
20505;SDS011;10411;48.148;7.704;2022-11-14T01:15:11;32.30;;;29.53;;
20505;SDS011;10411;48.148;7.704;2022-11-14T01:17:37;32.27;;;29.57;;
20505;SDS011;10411;48.148;7.704;2022-11-14T01:20:03;32.50;;;29.80;;
20505;SDS011;10411;48.148;7.704;2022-11-14T01:22:29;33.93;;;31.03;;
20505;SDS011;10411;48.148;7.704;2022-11-14T01:24:55;31.73;;;29.17;;
20505;SDS011;10411;48.148;7.704;2022-11-14T01:27:24;31.80;;;29.13;;
20505;SDS011;10411;48.148;7.704;2022-11-14T01:29:50;33.00;;;30.17;;
20505;SDS011;10411;48.148;7.704;2022-11-14T01:32:16;32.93;;;29.93;;
20505;SDS011;10411;48.148;7.704;2022-11-14T01:34:42;31.80;;;29.20;;
20505;SDS011;10411;48.148;7.704;2022-11-14T01:37:08;31.73;;;29.13;;
20505;SDS011;10411;48.148;7.704;2022-11-14T01:39:34;33.67;;;30.67;;
20505;SDS011;10411;48.148;7.704;2022-11-14T01:42:00;33.20;;;30.20;;
20505;SDS011;10411;48.148;7.704;2022-11-14T01:47:11;33.23;;;30.33;;
20505;SDS011;10411;48.148;7.704;2022-11-14T01:49:38;33.83;;;30.83;;
20505;SDS011;10411;48.148;7.704;2022-11-14T01:52:07;34.23;;;31.33;;
20505;SDS011;10411;48.148;7.704;2022-11-14T01:54:37;33.87;;;30.77;;
20505;SDS011;10411;48.148;7.704;2022-11-14T01:57:04;33.03;;;30.20;;
20505;SDS011;10411;48.148;7.704;2022-11-14T01:59:32;33.33;;;30.43;;
20505;SDS011;10411;48.148;7.704;2022-11-14T02:02:00;34.23;;;31.27;;
20505;SDS011;10411;48.148;7.704;2022-11-14T02:04:33;32.60;;;30.00;;
20505;SDS011;10411;48.148;7.704;2022-11-14T02:07:00;33.23;;;30.43;;
20505;SDS011;10411;48.148;7.704;2022-11-14T02:09:27;33.77;;;30.90;;
20505;SDS011;10411;48.148;7.704;2022-11-14T02:11:54;32.40;;;29.53;;
20505;SDS011;10411;48.148;7.704;2022-11-14T02:14:21;33.20;;;30.23;;
20505;SDS011;10411;48.148;7.704;2022-11-14T02:16:47;33.83;;;30.83;;
20505;SDS011;10411;48.148;7.704;2022-11-14T02:19:14;33.03;;;30.20;;
20505;SDS011;10411;48.148;7.704;2022-11-14T02:21:40;32.50;;;29.87;;
20505;SDS011;10411;48.148;7.704;2022-11-14T02:24:09;32.27;;;29.57;;
20505;SDS011;10411;48.148;7.704;2022-11-14T02:26:35;33.27;;;30.27;;
20505;SDS011;10411;48.148;7.704;2022-11-14T02:29:02;31.63;;;29.10;;
20505;SDS011;10411;48.148;7.704;2022-11-14T02:31:28;34.20;;;31.17;;
20505;SDS011;10411;48.148;7.704;2022-11-14T02:33:54;33.93;;;31.00;;
20505;SDS011;10411;48.148;7.704;2022-11-14T02:36:20;32.47;;;29.77;;
20505;SDS011;10411;48.148;7.704;2022-11-14T02:38:46;33.80;;;30.90;;
20505;SDS011;10411;48.148;7.704;2022-11-14T02:41:12;33.33;;;30.33;;
20505;SDS011;10411;48.148;7.704;2022-11-14T02:43:38;34.23;;;31.23;;
20505;SDS011;10411;48.148;7.704;2022-11-14T02:46:04;33.70;;;30.60;;
20505;SDS011;10411;48.148;7.704;2022-11-14T02:48:30;34.07;;;30.60;;
20505;SDS011;10411;48.148;7.704;2022-11-14T02:50:55;33.40;;;30.50;;
20505;SDS011;10411;48.148;7.704;2022-11-14T02:53:21;33.77;;;30.50;;
20505;SDS011;10411;48.148;7.704;2022-11-14T02:55:47;33.43;;;30.53;;
20505;SDS011;10411;48.148;7.704;2022-11-14T02:58:13;33.70;;;30.70;;
20505;SDS011;10411;48.148;7.704;2022-11-14T03:00:39;33.97;;;30.80;;
20505;SDS011;10411;48.148;7.704;2022-11-14T03:03:05;33.03;;;30.13;;
20505;SDS011;10411;48.148;7.704;2022-11-14T03:05:31;34.03;;;31.03;;
20505;SDS011;10411;48.148;7.704;2022-11-14T03:07:57;33.70;;;30.80;;
20505;SDS011;10411;48.148;7.704;2022-11-14T03:10:23;34.43;;;31.20;;
20505;SDS011;10411;48.148;7.704;2022-11-14T03:12:53;33.07;;;30.23;;
20505;SDS011;10411;48.148;7.704;2022-11-14T03:15:19;33.47;;;30.47;;
20505;SDS011;10411;48.148;7.704;2022-11-14T03:17:45;33.93;;;30.93;;
20505;SDS011;10411;48.148;7.704;2022-11-14T03:20:11;35.23;;;32.13;;
20505;SDS011;10411;48.148;7.704;2022-11-14T03:22:37;35.17;;;31.93;;
20505;SDS011;10411;48.148;7.704;2022-11-14T03:25:03;35.70;;;32.50;;
20505;SDS011;10411;48.148;7.704;2022-11-14T03:27:30;34.17;;;31.00;;
20505;SDS011;10411;48.148;7.704;2022-11-14T03:29:55;33.93;;;31.03;;
20505;SDS011;10411;48.148;7.704;2022-11-14T03:32:21;40.10;;;31.43;;
20505;SDS011;10411;48.148;7.704;2022-11-14T03:34:47;34.57;;;31.37;;
20505;SDS011;10411;48.148;7.704;2022-11-14T03:37:13;53.13;;;31.83;;
20505;SDS011;10411;48.148;7.704;2022-11-14T03:39:39;43.90;;;32.37;;
20505;SDS011;10411;48.148;7.704;2022-11-14T03:42:05;61.57;;;33.70;;
20505;SDS011;10411;48.148;7.704;2022-11-14T03:44:31;39.40;;;35.10;;
20505;SDS011;10411;48.148;7.704;2022-11-14T03:46:57;36.67;;;33.13;;
20505;SDS011;10411;48.148;7.704;2022-11-14T03:49:23;35.70;;;32.13;;
20505;SDS011;10411;48.148;7.704;2022-11-14T03:51:49;35.50;;;31.57;;
20505;SDS011;10411;48.148;7.704;2022-11-14T03:54:15;45.17;;;32.80;;
20505;SDS011;10411;48.148;7.704;2022-11-14T03:56:41;34.43;;;31.20;;
20505;SDS011;10411;48.148;7.704;2022-11-14T03:59:07;52.40;;;32.10;;
20505;SDS011;10411;48.148;7.704;2022-11-14T04:01:33;111.33;;;34.63;;
20505;SDS011;10411;48.148;7.704;2022-11-14T04:03:59;35.13;;;31.77;;
20505;SDS011;10411;48.148;7.704;2022-11-14T04:06:25;36.67;;;31.67;;
20505;SDS011;10411;48.148;7.704;2022-11-14T04:08:51;33.33;;;30.53;;
20505;SDS011;10411;48.148;7.704;2022-11-14T04:11:17;32.57;;;29.67;;
20505;SDS011;10411;48.148;7.704;2022-11-14T04:13:43;33.10;;;30.30;;
20505;SDS011;10411;48.148;7.704;2022-11-14T04:16:09;34.50;;;31.20;;
20505;SDS011;10411;48.148;7.704;2022-11-14T04:18:35;45.83;;;31.50;;
20505;SDS011;10411;48.148;7.704;2022-11-14T04:21:01;33.70;;;30.77;;
20505;SDS011;10411;48.148;7.704;2022-11-14T04:23:27;34.80;;;31.43;;
20505;SDS011;10411;48.148;7.704;2022-11-14T04:25:53;32.67;;;29.33;;
20505;SDS011;10411;48.148;7.704;2022-11-14T04:28:19;33.53;;;30.73;;
20505;SDS011;10411;48.148;7.704;2022-11-14T04:30:45;33.93;;;30.73;;
20505;SDS011;10411;48.148;7.704;2022-11-14T04:33:11;34.57;;;31.17;;
20505;SDS011;10411;48.148;7.704;2022-11-14T04:35:37;34.33;;;31.07;;
20505;SDS011;10411;48.148;7.704;2022-11-14T04:38:03;33.80;;;30.80;;
20505;SDS011;10411;48.148;7.704;2022-11-14T04:40:29;34.57;;;31.43;;
20505;SDS011;10411;48.148;7.704;2022-11-14T04:42:55;36.20;;;32.80;;
20505;SDS011;10411;48.148;7.704;2022-11-14T04:45:21;37.60;;;34.07;;
20505;SDS011;10411;48.148;7.704;2022-11-14T04:47:47;35.90;;;32.60;;
20505;SDS011;10411;48.148;7.704;2022-11-14T04:50:13;34.23;;;31.30;;
20505;SDS011;10411;48.148;7.704;2022-11-14T04:52:38;34.80;;;31.60;;
20505;SDS011;10411;48.148;7.704;2022-11-14T04:57:30;35.23;;;32.13;;
20505;SDS011;10411;48.148;7.704;2022-11-14T04:59:56;36.00;;;32.70;;
20505;SDS011;10411;48.148;7.704;2022-11-14T05:02:22;35.70;;;32.40;;
20505;SDS011;10411;48.148;7.704;2022-11-14T05:04:48;35.87;;;32.67;;
20505;SDS011;10411;48.148;7.704;2022-11-14T05:07:14;34.67;;;31.47;;
20505;SDS011;10411;48.148;7.704;2022-11-14T05:09:40;34.17;;;30.97;;
20505;SDS011;10411;48.148;7.704;2022-11-14T05:12:06;35.57;;;32.27;;
20505;SDS011;10411;48.148;7.704;2022-11-14T05:14:32;35.20;;;32.20;;
20505;SDS011;10411;48.148;7.704;2022-11-14T05:16:58;34.30;;;31.50;;
20505;SDS011;10411;48.148;7.704;2022-11-14T05:19:24;35.63;;;32.63;;
20505;SDS011;10411;48.148;7.704;2022-11-14T05:21:50;34.87;;;31.60;;
20505;SDS011;10411;48.148;7.704;2022-11-14T05:24:16;33.80;;;31.00;;
20505;SDS011;10411;48.148;7.704;2022-11-14T05:26:43;32.97;;;30.27;;
20505;SDS011;10411;48.148;7.704;2022-11-14T05:29:09;33.30;;;30.63;;
20505;SDS011;10411;48.148;7.704;2022-11-14T05:31:35;33.40;;;30.70;;
20505;SDS011;10411;48.148;7.704;2022-11-14T05:34:01;33.27;;;30.63;;
20505;SDS011;10411;48.148;7.704;2022-11-14T05:36:27;32.53;;;30.03;;
20505;SDS011;10411;48.148;7.704;2022-11-14T05:38:53;32.43;;;29.80;;
20505;SDS011;10411;48.148;7.704;2022-11-14T05:41:19;33.03;;;30.40;;
20505;SDS011;10411;48.148;7.704;2022-11-14T05:43:45;34.00;;;31.20;;
20505;SDS011;10411;48.148;7.704;2022-11-14T05:46:12;33.70;;;30.80;;
20505;SDS011;10411;48.148;7.704;2022-11-14T05:48:38;33.23;;;30.37;;
20505;SDS011;10411;48.148;7.704;2022-11-14T05:51:04;34.03;;;31.13;;
20505;SDS011;10411;48.148;7.704;2022-11-14T05:53:31;34.90;;;31.90;;
20505;SDS011;10411;48.148;7.704;2022-11-14T05:56:04;35.70;;;32.53;;
20505;SDS011;10411;48.148;7.704;2022-11-14T05:58:31;35.23;;;32.27;;
20505;SDS011;10411;48.148;7.704;2022-11-14T06:01:16;34.90;;;32.00;;
20505;SDS011;10411;48.148;7.704;2022-11-14T06:03:43;33.67;;;30.97;;
20505;SDS011;10411;48.148;7.704;2022-11-14T06:06:10;34.03;;;31.13;;
20505;SDS011;10411;48.148;7.704;2022-11-14T06:08:36;34.93;;;32.00;;
20505;SDS011;10411;48.148;7.704;2022-11-14T06:11:07;35.27;;;32.27;;
20505;SDS011;10411;48.148;7.704;2022-11-14T06:13:33;36.93;;;33.73;;
20505;SDS011;10411;48.148;7.704;2022-11-14T06:16:06;36.83;;;33.63;;
20505;SDS011;10411;48.148;7.704;2022-11-14T06:18:33;38.97;;;34.93;;
20505;SDS011;10411;48.148;7.704;2022-11-14T06:20:59;37.93;;;34.43;;
20505;SDS011;10411;48.148;7.704;2022-11-14T06:23:25;39.83;;;36.03;;
20505;SDS011;10411;48.148;7.704;2022-11-14T06:25:56;38.93;;;35.07;;
20505;SDS011;10411;48.148;7.704;2022-11-14T06:28:22;38.43;;;34.83;;
20505;SDS011;10411;48.148;7.704;2022-11-14T06:30:48;39.67;;;36.13;;
20505;SDS011;10411;48.148;7.704;2022-11-14T06:33:14;40.47;;;36.40;;
20505;SDS011;10411;48.148;7.704;2022-11-14T06:35:40;38.40;;;34.87;;
20505;SDS011;10411;48.148;7.704;2022-11-14T06:38:06;39.43;;;35.60;;
20505;SDS011;10411;48.148;7.704;2022-11-14T06:40:32;41.50;;;37.03;;
20505;SDS011;10411;48.148;7.704;2022-11-14T06:42:57;47.70;;;37.20;;
20505;SDS011;10411;48.148;7.704;2022-11-14T06:45:23;39.73;;;35.90;;
20505;SDS011;10411;48.148;7.704;2022-11-14T06:47:49;45.63;;;36.97;;
20505;SDS011;10411;48.148;7.704;2022-11-14T06:50:15;39.97;;;36.07;;
20505;SDS011;10411;48.148;7.704;2022-11-14T06:52:41;42.03;;;37.90;;
20505;SDS011;10411;48.148;7.704;2022-11-14T06:55:07;40.40;;;36.13;;
20505;SDS011;10411;48.148;7.704;2022-11-14T06:57:33;40.80;;;36.60;;
20505;SDS011;10411;48.148;7.704;2022-11-14T06:59:59;40.33;;;36.53;;
20505;SDS011;10411;48.148;7.704;2022-11-14T07:02:25;39.30;;;35.80;;
20505;SDS011;10411;48.148;7.704;2022-11-14T07:04:51;38.60;;;35.27;;
20505;SDS011;10411;48.148;7.704;2022-11-14T07:07:17;35.57;;;32.37;;
20505;SDS011;10411;48.148;7.704;2022-11-14T07:09:45;37.83;;;34.57;;
20505;SDS011;10411;48.148;7.704;2022-11-14T07:12:11;37.13;;;33.93;;
20505;SDS011;10411;48.148;7.704;2022-11-14T07:14:37;37.10;;;33.90;;
20505;SDS011;10411;48.148;7.704;2022-11-14T07:17:03;37.57;;;34.37;;
20505;SDS011;10411;48.148;7.704;2022-11-14T07:19:29;37.97;;;34.77;;
20505;SDS011;10411;48.148;7.704;2022-11-14T07:21:55;37.53;;;34.23;;
20505;SDS011;10411;48.148;7.704;2022-11-14T07:24:21;38.07;;;34.87;;
20505;SDS011;10411;48.148;7.704;2022-11-14T07:26:47;36.63;;;33.47;;
20505;SDS011;10411;48.148;7.704;2022-11-14T07:29:13;34.50;;;31.60;;
20505;SDS011;10411;48.148;7.704;2022-11-14T07:31:39;33.80;;;30.97;;
20505;SDS011;10411;48.148;7.704;2022-11-14T07:34:05;33.93;;;31.00;;
20505;SDS011;10411;48.148;7.704;2022-11-14T07:36:32;32.17;;;29.60;;
20505;SDS011;10411;48.148;7.704;2022-11-14T07:38:58;34.03;;;31.07;;
20505;SDS011;10411;48.148;7.704;2022-11-14T07:41:24;33.60;;;30.77;;
20505;SDS011;10411;48.148;7.704;2022-11-14T07:43:50;34.60;;;31.70;;
20505;SDS011;10411;48.148;7.704;2022-11-14T07:46:16;33.30;;;30.60;;
20505;SDS011;10411;48.148;7.704;2022-11-14T07:48:43;32.87;;;30.30;;
20505;SDS011;10411;48.148;7.704;2022-11-14T07:51:12;34.43;;;31.43;;
20505;SDS011;10411;48.148;7.704;2022-11-14T07:53:39;35.07;;;32.20;;
20505;SDS011;10411;48.148;7.704;2022-11-14T07:56:06;32.40;;;29.97;;
20505;SDS011;10411;48.148;7.704;2022-11-14T07:58:38;35.20;;;32.23;;
20505;SDS011;10411;48.148;7.704;2022-11-14T08:01:05;33.83;;;31.13;;
20505;SDS011;10411;48.148;7.704;2022-11-14T08:03:31;32.07;;;29.67;;
20505;SDS011;10411;48.148;7.704;2022-11-14T08:06:05;32.33;;;29.83;;
20505;SDS011;10411;48.148;7.704;2022-11-14T08:08:31;33.27;;;30.67;;
20505;SDS011;10411;48.148;7.704;2022-11-14T08:10:58;33.10;;;30.50;;
20505;SDS011;10411;48.148;7.704;2022-11-14T08:13:24;33.30;;;30.70;;
20505;SDS011;10411;48.148;7.704;2022-11-14T08:15:50;32.83;;;30.10;;
20505;SDS011;10411;48.148;7.704;2022-11-14T08:18:16;32.97;;;30.37;;
20505;SDS011;10411;48.148;7.704;2022-11-14T08:20:42;33.90;;;31.07;;
20505;SDS011;10411;48.148;7.704;2022-11-14T08:23:09;32.70;;;30.00;;
20505;SDS011;10411;48.148;7.704;2022-11-14T08:25:35;31.00;;;28.40;;
20505;SDS011;10411;48.148;7.704;2022-11-14T08:28:01;31.63;;;29.23;;
20505;SDS011;10411;48.148;7.704;2022-11-14T08:30:27;32.97;;;30.30;;
20505;SDS011;10411;48.148;7.704;2022-11-14T08:32:53;33.70;;;30.90;;
20505;SDS011;10411;48.148;7.704;2022-11-14T08:35:19;34.30;;;31.50;;
20505;SDS011;10411;48.148;7.704;2022-11-14T08:37:45;35.30;;;32.10;;
20505;SDS011;10411;48.148;7.704;2022-11-14T08:40:11;34.97;;;32.17;;
20505;SDS011;10411;48.148;7.704;2022-11-14T08:42:37;32.33;;;29.83;;
20505;SDS011;10411;48.148;7.704;2022-11-14T08:45:04;33.23;;;30.70;;
20505;SDS011;10411;48.148;7.704;2022-11-14T08:47:30;32.03;;;29.43;;
20505;SDS011;10411;48.148;7.704;2022-11-14T08:49:56;31.90;;;29.40;;
20505;SDS011;10411;48.148;7.704;2022-11-14T08:52:21;33.30;;;30.47;;
20505;SDS011;10411;48.148;7.704;2022-11-14T08:54:47;32.57;;;29.97;;
20505;SDS011;10411;48.148;7.704;2022-11-14T08:57:13;33.83;;;31.03;;
20505;SDS011;10411;48.148;7.704;2022-11-14T08:59:40;31.70;;;29.30;;
20505;SDS011;10411;48.148;7.704;2022-11-14T09:02:08;32.77;;;29.93;;
20505;SDS011;10411;48.148;7.704;2022-11-14T09:04:35;32.83;;;30.13;;
20505;SDS011;10411;48.148;7.704;2022-11-14T09:07:01;32.57;;;30.03;;
20505;SDS011;10411;48.148;7.704;2022-11-14T09:09:27;30.77;;;28.57;;
20505;SDS011;10411;48.148;7.704;2022-11-14T09:11:53;30.10;;;27.80;;
20505;SDS011;10411;48.148;7.704;2022-11-14T09:14:19;30.10;;;27.90;;
20505;SDS011;10411;48.148;7.704;2022-11-14T09:16:48;31.63;;;29.20;;
20505;SDS011;10411;48.148;7.704;2022-11-14T09:19:14;31.17;;;28.77;;
20505;SDS011;10411;48.148;7.704;2022-11-14T09:21:40;31.20;;;28.80;;
20505;SDS011;10411;48.148;7.704;2022-11-14T09:24:06;33.43;;;30.63;;
20505;SDS011;10411;48.148;7.704;2022-11-14T09:26:32;32.93;;;30.23;;
20505;SDS011;10411;48.148;7.704;2022-11-14T09:28:58;30.67;;;28.37;;
20505;SDS011;10411;48.148;7.704;2022-11-14T09:31:26;30.27;;;27.97;;
20505;SDS011;10411;48.148;7.704;2022-11-14T09:33:52;31.47;;;29.07;;
20505;SDS011;10411;48.148;7.704;2022-11-14T09:36:18;31.83;;;29.43;;
20505;SDS011;10411;48.148;7.704;2022-11-14T09:38:44;32.23;;;29.83;;
20505;SDS011;10411;48.148;7.704;2022-11-14T09:41:23;32.17;;;29.77;;
20505;SDS011;10411;48.148;7.704;2022-11-14T09:46:21;31.97;;;29.50;;
20505;SDS011;10411;48.148;7.704;2022-11-14T09:48:48;32.93;;;30.33;;
20505;SDS011;10411;48.148;7.704;2022-11-14T09:51:24;32.77;;;30.10;;
20505;SDS011;10411;48.148;7.704;2022-11-14T09:56:35;34.20;;;31.37;;
20505;SDS011;10411;48.148;7.704;2022-11-14T09:59:01;33.23;;;30.63;;
20505;SDS011;10411;48.148;7.704;2022-11-14T10:04:23;31.77;;;29.37;;
20505;SDS011;10411;48.148;7.704;2022-11-14T10:09:37;31.10;;;28.50;;
20505;SDS011;10411;48.148;7.704;2022-11-14T10:12:20;31.07;;;28.77;;
20505;SDS011;10411;48.148;7.704;2022-11-14T10:14:58;31.60;;;29.17;;
20505;SDS011;10411;48.148;7.704;2022-11-14T10:27:42;30.77;;;28.37;;
20505;SDS011;10411;48.148;7.704;2022-11-14T10:30:11;31.87;;;29.10;;
20505;SDS011;10411;48.148;7.704;2022-11-14T10:32:42;30.70;;;28.40;;
20505;SDS011;10411;48.148;7.704;2022-11-14T10:35:13;31.47;;;28.77;;
20505;SDS011;10411;48.148;7.704;2022-11-14T10:37:40;32.23;;;29.43;;
20505;SDS011;10411;48.148;7.704;2022-11-14T10:40:18;33.63;;;30.83;;
20505;SDS011;10411;48.148;7.704;2022-11-14T10:42:45;30.77;;;28.07;;
20505;SDS011;10411;48.148;7.704;2022-11-14T10:47:53;34.33;;;31.63;;
20505;SDS011;10411;48.148;7.704;2022-11-14T10:50:21;30.57;;;28.10;;
20505;SDS011;10411;48.148;7.704;2022-11-14T10:52:51;34.57;;;31.57;;
20505;SDS011;10411;48.148;7.704;2022-11-14T10:55:18;32.97;;;30.03;;
20505;SDS011;10411;48.148;7.704;2022-11-14T10:57:45;33.10;;;30.47;;
20505;SDS011;10411;48.148;7.704;2022-11-14T11:00:12;30.83;;;28.07;;
20505;SDS011;10411;48.148;7.704;2022-11-14T11:02:49;30.53;;;28.03;;
20505;SDS011;10411;48.148;7.704;2022-11-14T11:05:16;29.20;;;27.07;;
20505;SDS011;10411;48.148;7.704;2022-11-14T11:07:46;26.17;;;24.13;;
20505;SDS011;10411;48.148;7.704;2022-11-14T11:10:31;24.40;;;22.63;;
20505;SDS011;10411;48.148;7.704;2022-11-14T11:13:28;24.73;;;22.70;;
20505;SDS011;10411;48.148;7.704;2022-11-14T11:15:56;25.20;;;23.50;;
20505;SDS011;10411;48.148;7.704;2022-11-14T11:23:27;25.53;;;23.63;;
20505;SDS011;10411;48.148;7.704;2022-11-14T11:26:00;22.40;;;20.73;;
20505;SDS011;10411;48.148;7.704;2022-11-14T11:28:34;22.80;;;21.20;;
20505;SDS011;10411;48.148;7.704;2022-11-14T11:31:01;23.87;;;22.17;;
20505;SDS011;10411;48.148;7.704;2022-11-14T11:33:28;22.87;;;21.40;;
20505;SDS011;10411;48.148;7.704;2022-11-14T11:35:56;23.90;;;22.17;;
20505;SDS011;10411;48.148;7.704;2022-11-14T11:38:24;23.37;;;21.77;;
20505;SDS011;10411;48.148;7.704;2022-11-14T11:40:52;23.23;;;21.63;;
20505;SDS011;10411;48.148;7.704;2022-11-14T11:45:53;23.43;;;21.80;;
20505;SDS011;10411;48.148;7.704;2022-11-14T11:48:20;23.03;;;21.53;;
20505;SDS011;10411;48.148;7.704;2022-11-14T11:50:47;23.73;;;22.03;;
20505;SDS011;10411;48.148;7.704;2022-11-14T11:53:21;23.37;;;21.73;;
20505;SDS011;10411;48.148;7.704;2022-11-14T11:55:50;23.57;;;21.87;;
20505;SDS011;10411;48.148;7.704;2022-11-14T12:00:44;23.53;;;21.80;;
20505;SDS011;10411;48.148;7.704;2022-11-14T12:03:13;22.73;;;21.17;;
20505;SDS011;10411;48.148;7.704;2022-11-14T12:08:12;22.80;;;20.90;;
20505;SDS011;10411;48.148;7.704;2022-11-14T12:10:42;23.17;;;21.57;;
20505;SDS011;10411;48.148;7.704;2022-11-14T12:18:23;22.73;;;21.33;;
20505;SDS011;10411;48.148;7.704;2022-11-14T12:20:55;22.27;;;20.57;;
20505;SDS011;10411;48.148;7.704;2022-11-14T12:23:47;22.27;;;20.67;;
20505;SDS011;10411;48.148;7.704;2022-11-14T12:31:32;22.67;;;20.83;;
20505;SDS011;10411;48.148;7.704;2022-11-14T12:34:03;22.93;;;21.23;;
20505;SDS011;10411;48.148;7.704;2022-11-14T12:36:30;23.87;;;21.90;;
20505;SDS011;10411;48.148;7.704;2022-11-14T12:38:56;22.57;;;20.90;;
20505;SDS011;10411;48.148;7.704;2022-11-14T12:41:33;22.70;;;21.00;;
20505;SDS011;10411;48.148;7.704;2022-11-14T12:50:26;22.40;;;20.70;;
20505;SDS011;10411;48.148;7.704;2022-11-14T13:00:33;21.73;;;20.33;;
20505;SDS011;10411;48.148;7.704;2022-11-14T13:10:30;22.93;;;21.23;;
20505;SDS011;10411;48.148;7.704;2022-11-14T13:13:15;23.47;;;21.70;;
20505;SDS011;10411;48.148;7.704;2022-11-14T13:16:00;23.30;;;21.80;;
20505;SDS011;10411;48.148;7.704;2022-11-14T13:19:00;23.37;;;21.40;;
20505;SDS011;10411;48.148;7.704;2022-11-14T13:27:28;24.33;;;22.53;;
20505;SDS011;10411;48.148;7.704;2022-11-14T13:29:54;24.00;;;22.20;;
20505;SDS011;10411;48.148;7.704;2022-11-14T13:48:08;23.60;;;22.07;;
20505;SDS011;10411;48.148;7.704;2022-11-14T13:50:37;22.83;;;21.27;;
20505;SDS011;10411;48.148;7.704;2022-11-14T13:53:21;23.80;;;22.00;;
20505;SDS011;10411;48.148;7.704;2022-11-14T13:56:00;23.47;;;21.87;;
20505;SDS011;10411;48.148;7.704;2022-11-14T14:11:36;23.23;;;21.73;;
20505;SDS011;10411;48.148;7.704;2022-11-14T14:14:12;23.17;;;21.57;;
20505;SDS011;10411;48.148;7.704;2022-11-14T14:27:16;22.37;;;20.80;;
20505;SDS011;10411;48.148;7.704;2022-11-14T14:29:54;22.23;;;20.77;;
20505;SDS011;10411;48.148;7.704;2022-11-14T14:32:22;23.80;;;21.77;;
20505;SDS011;10411;48.148;7.704;2022-11-14T14:34:48;22.67;;;21.10;;
20505;SDS011;10411;48.148;7.704;2022-11-14T14:37:21;22.97;;;21.47;;
20505;SDS011;10411;48.148;7.704;2022-11-14T14:39:58;23.63;;;22.03;;
20505;SDS011;10411;48.148;7.704;2022-11-14T14:42:25;25.80;;;23.90;;
20505;SDS011;10411;48.148;7.704;2022-11-14T14:44:52;24.73;;;22.90;;
20505;SDS011;10411;48.148;7.704;2022-11-14T14:49:57;28.07;;;25.50;;
20505;SDS011;10411;48.148;7.704;2022-11-14T14:52:31;27.13;;;24.77;;
20505;SDS011;10411;48.148;7.704;2022-11-14T14:54:57;30.93;;;27.63;;
20505;SDS011;10411;48.148;7.704;2022-11-14T14:57:26;31.20;;;27.93;;
20505;SDS011;10411;48.148;7.704;2022-11-14T15:02:37;29.87;;;27.00;;
20505;SDS011;10411;48.148;7.704;2022-11-14T15:05:03;29.70;;;27.03;;
20505;SDS011;10411;48.148;7.704;2022-11-14T15:07:30;29.20;;;26.53;;
20505;SDS011;10411;48.148;7.704;2022-11-14T15:09:57;26.90;;;24.77;;
20505;SDS011;10411;48.148;7.704;2022-11-14T15:12:24;29.33;;;26.73;;
20505;SDS011;10411;48.148;7.704;2022-11-14T15:14:51;30.17;;;27.33;;
20505;SDS011;10411;48.148;7.704;2022-11-14T15:17:18;25.00;;;23.00;;
20505;SDS011;10411;48.148;7.704;2022-11-14T15:19:44;30.37;;;27.60;;
20505;SDS011;10411;48.148;7.704;2022-11-14T15:24:40;28.33;;;25.87;;
20505;SDS011;10411;48.148;7.704;2022-11-14T15:27:19;26.10;;;24.07;;
20505;SDS011;10411;48.148;7.704;2022-11-14T15:29:45;30.53;;;28.00;;
20505;SDS011;10411;48.148;7.704;2022-11-14T15:32:16;26.10;;;24.30;;
20505;SDS011;10411;48.148;7.704;2022-11-14T15:34:43;23.63;;;22.10;;
20505;SDS011;10411;48.148;7.704;2022-11-14T15:39:37;23.40;;;21.73;;
20505;SDS011;10411;48.148;7.704;2022-11-14T15:44:48;24.07;;;22.30;;
20505;SDS011;10411;48.148;7.704;2022-11-14T15:49:56;25.37;;;23.57;;
20505;SDS011;10411;48.148;7.704;2022-11-14T15:52:36;25.33;;;23.33;;
20505;SDS011;10411;48.148;7.704;2022-11-14T15:55:03;24.07;;;22.40;;
20505;SDS011;10411;48.148;7.704;2022-11-14T15:57:34;24.27;;;22.57;;
20505;SDS011;10411;48.148;7.704;2022-11-14T15:59:59;22.87;;;21.43;;
20505;SDS011;10411;48.148;7.704;2022-11-14T16:02:27;23.80;;;22.20;;
20505;SDS011;10411;48.148;7.704;2022-11-14T16:04:54;24.83;;;23.03;;
20505;SDS011;10411;48.148;7.704;2022-11-14T16:07:20;25.03;;;23.13;;
20505;SDS011;10411;48.148;7.704;2022-11-14T16:09:46;23.93;;;22.13;;
20505;SDS011;10411;48.148;7.704;2022-11-14T16:12:13;23.63;;;22.03;;
20505;SDS011;10411;48.148;7.704;2022-11-14T16:14:39;23.90;;;22.20;;
20505;SDS011;10411;48.148;7.704;2022-11-14T16:17:07;25.37;;;23.50;;
20505;SDS011;10411;48.148;7.704;2022-11-14T16:19:35;25.03;;;23.13;;
20505;SDS011;10411;48.148;7.704;2022-11-14T16:22:01;24.53;;;22.60;;
20505;SDS011;10411;48.148;7.704;2022-11-14T16:24:27;24.90;;;23.10;;
20505;SDS011;10411;48.148;7.704;2022-11-14T16:26:53;26.50;;;24.50;;
20505;SDS011;10411;48.148;7.704;2022-11-14T16:29:21;25.80;;;23.90;;
20505;SDS011;10411;48.148;7.704;2022-11-14T16:31:47;26.63;;;24.60;;
20505;SDS011;10411;48.148;7.704;2022-11-14T16:34:19;28.00;;;25.63;;
20505;SDS011;10411;48.148;7.704;2022-11-14T16:36:45;25.97;;;23.87;;
20505;SDS011;10411;48.148;7.704;2022-11-14T16:39:12;28.00;;;25.67;;